Weather History for KCLI - February, 2012

Change the Weather History Date:

Monday, February 27, 2012

  Actual Average Record
Temperature  
Mean Temperature 30 °F -  
Max Temperature 33 °F 36 °F 54 °F (1976)
Min Temperature 26 °F 15 °F -13 °F (2014)
Degree Days  
Heating Degree Days 36    
Moisture  
Dew Point 21 °F    
Average Humidity 65    
Maximum Humidity 75    
Minimum Humidity 56    
Precipitation  
Precipitation 0.00 in - - ()
Sea Level Pressure  
Sea Level Pressure 30.13 in    
Wind  
Wind Speed 16 mph (West)    
Max Wind Speed 26 mph    
Max Gust Speed 32 mph    
Visibility 10 miles    
Events      
Averages and records for this station are not official NWS values.
T = Trace of Precipitation, MM = Missing Value Source: NWS Daily Summary

Daily Weather History Graph

Daily Weather History Graph

Search for Another Location

Airport or City:

Trip Planner

Search our weather history database for the weather conditions in past years. The results will help you decide how hot, cold, wet, or windy it might be!

Date:

Astronomy

Feb. 27, 2012 Rise Set
Actual Time 6:36 AM CST 5:39 PM CST
Civil Twilight 6:07 AM CST 6:08 PM CST
Nautical Twilight 5:33 AM CST 6:42 PM CST
Astronomical Twilight 4:59 AM CST 7:16 PM CST
Moon 8:49 AM CST (2/27) 11:50 PM CST (2/27)
Length of Visible Light 12h 01m
Length of Day
11h 02m
Waxing Crescent, 29% of the Moon is Illuminated
Feb 27
Waxing Crescent
Feb 29
First Quarter
Mar 8
Full
Mar 14
Last Quarter
Mar 22
New

Hourly Weather History & Observations

Time (CST) Temp. Windchill Dew Point Humidity Pressure Visibility Wind Dir Wind Speed Gust Speed Precip Events Conditions
12:15 AM 33.8 °F 23.2 °F 23.0 °F 65% 29.87 in 10.0 mi West 17.3 mph 26.5 mph N/A   Overcast
12:35 AM 32.0 °F 21.6 °F 23.0 °F 69% 29.88 in 10.0 mi WSW 15.0 mph 23.0 mph N/A   Overcast
12:55 AM 32.0 °F 21.2 °F 23.0 °F 69% 29.89 in 10.0 mi WSW 16.1 mph 29.9 mph N/A   Overcast
1:15 AM 32.0 °F 21.6 °F 23.0 °F 69% 29.90 in 10.0 mi West 15.0 mph 25.3 mph N/A   Overcast
1:35 AM 32.0 °F 20.5 °F 23.0 °F 69% 29.90 in 10.0 mi West 18.4 mph 26.5 mph N/A   Overcast
1:55 AM 32.0 °F 19.8 °F 23.0 °F 69% 29.91 in 10.0 mi West 20.7 mph 25.3 mph N/A   Overcast
2:15 AM 32.0 °F 20.8 °F 23.0 °F 69% 29.91 in 10.0 mi West 17.3 mph 25.3 mph N/A   Overcast
2:35 AM 32.0 °F 22.1 °F 21.2 °F 64% 29.92 in 10.0 mi West 13.8 mph 25.3 mph N/A   Overcast
2:55 AM 32.0 °F 22.1 °F 21.2 °F 64% 29.92 in 10.0 mi West 13.8 mph 26.5 mph N/A   Overcast
3:15 AM 32.0 °F 22.1 °F 21.2 °F 64% 29.92 in 10.0 mi West 13.8 mph 26.5 mph N/A   Overcast
3:35 AM 32.0 °F 20.1 °F 21.2 °F 64% 29.93 in 10.0 mi West 19.6 mph 25.3 mph N/A   Overcast
3:55 AM 32.0 °F 18.4 °F 21.2 °F 64% 29.94 in 10.0 mi West 26.5 mph 29.9 mph N/A   Overcast
4:15 AM 32.0 °F 21.6 °F 21.2 °F 64% 29.94 in 10.0 mi West 15.0 mph 21.9 mph N/A   Overcast
4:35 AM 32.0 °F 21.6 °F 21.2 °F 64% 29.95 in 10.0 mi West 15.0 mph 20.7 mph N/A   Overcast
4:55 AM 32.0 °F 22.5 °F 21.2 °F 64% 29.97 in 10.0 mi West 12.7 mph 23.0 mph N/A   Overcast
5:15 AM 32.0 °F 19.8 °F 21.2 °F 64% 29.98 in 10.0 mi West 20.7 mph 29.9 mph N/A   Overcast
5:35 AM 32.0 °F 21.6 °F 21.2 °F 64% 29.99 in 10.0 mi West 15.0 mph 28.8 mph N/A   Overcast
5:55 AM 32.0 °F 20.8 °F 21.2 °F 64% 30.00 in 10.0 mi West 17.3 mph 32.2 mph N/A   Overcast
6:15 AM 30.2 °F 18.5 °F 21.2 °F 69% 30.01 in 10.0 mi West 17.3 mph 26.5 mph N/A   Overcast
6:35 AM 30.2 °F 17.8 °F 21.2 °F 69% 30.01 in 10.0 mi West 19.6 mph 26.5 mph N/A   Overcast
6:55 AM 30.2 °F 17.4 °F 21.2 °F 69% 30.02 in 10.0 mi West 20.7 mph - N/A   Overcast
7:15 AM 30.2 °F 17.8 °F 23.0 °F 75% 30.03 in 10.0 mi West 19.6 mph 26.5 mph N/A   Overcast
7:35 AM 30.2 °F 18.1 °F 23.0 °F 75% 30.05 in 10.0 mi West 18.4 mph 26.5 mph N/A   Overcast
7:55 AM 30.2 °F 18.5 °F 23.0 °F 75% 30.06 in 10.0 mi West 17.3 mph 26.5 mph N/A   Overcast
8:15 AM 30.2 °F 18.5 °F 23.0 °F 75% 30.08 in 10.0 mi WNW 17.3 mph 28.8 mph N/A   Overcast
8:35 AM 32.0 °F 20.5 °F 23.0 °F 69% 30.09 in 10.0 mi WNW 18.4 mph 24.2 mph N/A   Overcast
8:55 AM 32.0 °F 21.2 °F 23.0 °F 69% 30.10 in 10.0 mi WNW 16.1 mph 27.6 mph N/A   Overcast
9:15 AM 32.0 °F 20.5 °F 23.0 °F 69% 30.12 in 10.0 mi WNW 18.4 mph 25.3 mph N/A   Overcast
9:35 AM 32.0 °F 21.6 °F 23.0 °F 69% 30.13 in 10.0 mi WNW 15.0 mph 28.8 mph N/A   Overcast
9:55 AM 32.0 °F 19.5 °F 21.2 °F 64% 30.14 in 10.0 mi WNW 21.9 mph 29.9 mph N/A   Overcast
10:15 AM 32.0 °F 19.5 °F 21.2 °F 64% 30.16 in 10.0 mi NW 21.9 mph 28.8 mph N/A   Overcast
10:35 AM 32.0 °F 20.8 °F 21.2 °F 64% 30.18 in 10.0 mi NW 17.3 mph 26.5 mph N/A   Mostly Cloudy
10:55 AM 32.0 °F 22.1 °F 21.2 °F 64% 30.19 in 10.0 mi NNW 13.8 mph 23.0 mph N/A   Overcast
11:15 AM 32.0 °F 19.8 °F 21.2 °F 64% 30.21 in 10.0 mi NW 20.7 mph 28.8 mph N/A   Overcast
11:35 AM 32.0 °F 20.5 °F 21.2 °F 64% 30.23 in 10.0 mi WNW 18.4 mph 24.2 mph N/A   Overcast
11:55 AM 32.0 °F 20.5 °F 19.4 °F 60% 30.23 in 10.0 mi WNW 18.4 mph 26.5 mph N/A   Mostly Cloudy
12:15 PM 32.0 °F 21.2 °F 21.2 °F 64% 30.23 in 10.0 mi WNW 16.1 mph - N/A   Scattered Clouds
12:35 PM 33.8 °F 23.5 °F 19.4 °F 56% 30.24 in 10.0 mi WNW 16.1 mph 25.3 mph N/A   Clear
12:55 PM 33.8 °F 23.2 °F 19.4 °F 56% 30.25 in 10.0 mi NW 17.3 mph 21.9 mph N/A   Scattered Clouds
1:15 PM 33.8 °F 25.3 °F 21.2 °F 60% 30.26 in 10.0 mi West 11.5 mph 24.2 mph N/A   Mostly Cloudy
1:35 PM 33.8 °F 22.5 °F 19.4 °F 56% 30.26 in 10.0 mi West 19.6 mph 23.0 mph N/A   Mostly Cloudy
1:55 PM 33.8 °F 23.5 °F 19.4 °F 56% 30.27 in 10.0 mi West 16.1 mph 23.0 mph N/A   Scattered Clouds
2:15 PM 33.8 °F 23.9 °F 19.4 °F 56% 30.28 in 10.0 mi NW 15.0 mph 23.0 mph N/A   Scattered Clouds
2:35 PM 33.8 °F 24.8 °F 19.4 °F 56% 30.29 in 10.0 mi WNW 12.7 mph 23.0 mph N/A   Scattered Clouds
2:55 PM 33.8 °F 24.3 °F 19.4 °F 56% 30.31 in 10.0 mi West 13.8 mph 20.7 mph N/A   Mostly Cloudy
3:15 PM 32.0 °F 22.1 °F 19.4 °F 60% 30.32 in 10.0 mi West 13.8 mph 18.4 mph N/A   Scattered Clouds
3:35 PM 32.0 °F 23.0 °F 19.4 °F 60% 30.33 in 10.0 mi WNW 11.5 mph 16.1 mph N/A   Scattered Clouds
3:55 PM 32.0 °F 23.0 °F 19.4 °F 60% 30.34 in 10.0 mi West 11.5 mph - N/A   Scattered Clouds
4:15 PM 32.0 °F 22.1 °F 19.4 °F 60% 30.35 in 10.0 mi West 13.8 mph - N/A   Scattered Clouds
5:15 PM 32.0 °F 24.2 °F 19.4 °F 60% 30.35 in 10.0 mi WNW 9.2 mph - N/A   Clear
6:35 PM 28.4 °F 21.2 °F 19.4 °F 69% 30.39 in 10.0 mi West 6.9 mph - N/A   Clear
6:55 PM 28.4 °F 22.2 °F 19.4 °F 69% 30.40 in 10.0 mi West 5.8 mph - N/A   Clear
7:15 PM 28.4 °F 22.2 °F 19.4 °F 69% 30.40 in 10.0 mi West 5.8 mph - N/A   Clear
7:35 PM 28.4 °F 23.3 °F 19.4 °F 69% 30.40 in 10.0 mi WSW 4.6 mph - N/A   Clear
8:35 PM 26.6 °F 20.0 °F 19.4 °F 74% 30.41 in 10.0 mi WSW 5.8 mph - N/A   Clear
8:55 PM 26.6 °F 21.2 °F 19.4 °F 74% 30.41 in 10.0 mi West 4.6 mph - N/A   Clear
9:15 PM 26.6 °F 22.6 °F 19.4 °F 74% 30.41 in 10.0 mi West 3.5 mph - N/A   Clear
9:35 PM 26.6 °F 22.6 °F 19.4 °F 74% 30.41 in 10.0 mi WNW 3.5 mph - N/A   Clear
9:55 PM 26.6 °F 22.6 °F 19.4 °F 74% 30.42 in 10.0 mi WNW 3.5 mph - N/A   Clear
10:15 PM 23.0 °F 17.0 °F 19.4 °F 86% 30.41 in 10.0 mi WNW 4.6 mph - N/A   Clear
10:35 PM 23.0 °F 17.0 °F 19.4 °F 86% 30.43 in 10.0 mi WNW 4.6 mph - N/A   Clear
10:55 PM 23.0 °F 18.4 °F 19.4 °F 86% 30.43 in 10.0 mi West 3.5 mph - N/A   Clear
11:15 PM 23.0 °F 18.4 °F 19.4 °F 86% 30.43 in 10.0 mi WNW 3.5 mph - N/A   Clear
11:35 PM 23.0 °F - 19.4 °F 86% 30.43 in 10.0 mi Calm Calm - N/A   Clear
11:55 PM 23.0 °F - 19.4 °F 86% 30.42 in 10.0 mi Calm Calm - N/A   Clear